Time;durP1;ratioP1;P1;durP2;ratioP2;P2;SDS_P1;SDS_P2;PMS_P1;PMS_P2;Temp;Humidity;BMP_temperature;BMP_pressure;BME280_temperature;BME280_humidity;BME280_pressure;Samples;Min_cycle;Max_cycle;Signal;HPM_P1;HPM_P2
2023/04/23 00:00:45;;;;;;;16.63;7.63;;;11.10;95.20;;;;;;5047878;28;19912;-84
2023/04/23 00:03:13;;;;;;;28.80;8.13;;;11.10;95.00;;;;;;5063984;28;20028;-85
2023/04/23 00:05:41;;;;;;;23.15;9.68;;;11.20;95.40;;;;;;5031653;28;20116;-86
2023/04/23 00:08:09;;;;;;;24.85;10.75;;;11.20;94.70;;;;;;5032387;28;20080;-84
2023/04/23 00:10:35;;;;;;;23.52;9.07;;;11.20;94.70;;;;;;5046438;28;20026;-85
2023/04/23 00:13:00;;;;;;;;;;;11.20;94.30;;;;;;5029689;28;20200;-84
2023/04/23 00:15:26;;;;;;;15.15;6.43;;;11.20;93.40;;;;;;5046075;28;20376;-83
2023/04/23 00:17:53;;;;;;;14.95;5.47;;;11.30;93.50;;;;;;5030270;28;20541;-82
2023/04/23 00:20:18;;;;;;;14.75;6.22;;;11.30;93.30;;;;;;5030022;28;20108;-84
2023/04/23 00:22:44;;;;;;;;;;;11.30;93.70;;;;;;5029853;28;20509;-82
2023/04/23 00:25:10;;;;;;;13.88;5.25;;;11.30;94.30;;;;;;5046473;28;20411;-84
2023/04/23 00:27:36;;;;;;;13.25;5.47;;;11.30;94.20;;;;;;5030748;28;20446;-84
2023/04/23 00:30:05;;;;;;;16.58;6.35;;;11.30;94.80;;;;;;5029504;28;20036;-84
2023/04/23 00:32:31;;;;;;;23.63;7.13;;;11.30;95.10;;;;;;5029455;28;20045;-85
2023/04/23 00:34:57;;;;;;;;;;;11.30;95.10;;;;;;5030402;28;20128;-84
2023/04/23 00:37:22;;;;;;;18.48;7.25;;;11.40;95.70;;;;;;5055276;28;19936;-84
2023/04/23 00:39:48;;;;;;;;;;;11.40;95.60;;;;;;5037084;28;20442;-86
2023/04/23 00:42:16;;;;;;;21.17;7.78;;;11.40;96.00;;;;;;5033490;28;19909;-86
2023/04/23 00:44:42;;;;;;;19.05;8.50;;;11.40;96.20;;;;;;5031503;28;20029;-84
2023/04/23 00:47:08;;;;;;;18.95;7.30;;;11.40;96.30;;;;;;5034878;28;20511;-83
2023/04/23 00:49:35;;;;;;;16.27;6.25;;;11.40;96.00;;;;;;5032698;28;20478;-85
2023/04/23 00:52:02;;;;;;;17.83;5.43;;;11.40;95.90;;;;;;5032209;28;20025;-83
2023/04/23 00:54:28;;;;;;;18.85;5.65;;;11.40;95.50;;;;;;5030044;28;20104;-83
2023/04/23 00:56:56;;;;;;;;;;;11.40;95.20;;;;;;5046409;28;20180;-84
2023/04/23 00:59:24;;;;;;;19.15;7.60;;;11.40;94.50;;;;;;5049164;28;20015;-86
2023/04/23 01:01:51;;;;;;;19.42;7.28;;;11.40;94.70;;;;;;5033004;28;20029;-84
2023/04/23 01:04:20;;;;;;;16.52;5.65;;;11.40;94.80;;;;;;5034289;28;20512;-85
2023/04/23 01:06:46;;;;;;;14.05;5.32;;;11.50;94.60;;;;;;5033255;28;20433;-84
2023/04/23 01:09:12;;;;;;;12.98;5.00;;;11.40;94.00;;;;;;5034444;28;20029;-84
2023/04/23 01:11:41;;;;;;;15.75;4.78;;;11.50;93.40;;;;;;5050192;28;20032;-84
2023/04/23 01:14:08;;;;;;;10.90;4.63;;;11.50;94.20;;;;;;5034014;28;20017;-85
2023/04/23 01:16:34;;;;;;;14.70;4.35;;;11.40;95.20;;;;;;5034328;28;20029;-82
2023/04/23 01:19:01;;;;;;;6.25;3.08;;;11.40;95.20;;;;;;5031964;28;20045;-82
2023/04/23 01:21:28;;;;;;;8.55;3.92;;;11.40;94.80;;;;;;5030610;28;20120;-81
2023/04/23 01:23:54;;;;;;;6.15;3.42;;;11.50;95.00;;;;;;5047538;28;20017;-81
2023/04/23 01:26:22;;;;;;;7.30;4.05;;;11.40;95.50;;;;;;5032294;28;20133;-82
2023/04/23 01:28:49;;;;;;;8.15;4.00;;;11.40;96.30;;;;;;5031971;28;20569;-82
2023/04/23 01:31:16;;;;;;;13.77;5.53;;;11.40;96.80;;;;;;5035000;28;20102;-85
2023/04/23 01:33:43;;;;;;;13.52;6.63;;;11.40;97.00;;;;;;5034599;28;20083;-85
2023/04/23 01:36:09;;;;;;;12.95;6.20;;;11.40;97.80;;;;;;5035656;28;20478;-85
2023/04/23 01:38:37;;;;;;;12.15;5.85;;;11.30;97.30;;;;;;5034896;28;20088;-85
2023/04/23 01:41:03;;;;;;;10.75;4.00;;;11.30;96.10;;;;;;5069257;28;20030;-86
2023/04/23 01:43:30;;;;;;;;;;;11.30;94.30;;;;;;5036194;28;20517;-86
2023/04/23 01:45:56;;;;;;;11.82;5.78;;;11.40;95.20;;;;;;5051374;28;19944;-85
2023/04/23 01:48:23;;;;;;;8.05;5.05;;;11.30;96.10;;;;;;5034598;28;20461;-85
2023/04/23 01:50:50;;;;;;;13.95;5.53;;;11.30;97.10;;;;;;5036415;28;20052;-85
2023/04/23 01:53:16;;;;;;;8.82;4.60;;;11.30;96.70;;;;;;5067899;28;20025;-84
2023/04/23 01:55:44;;;;;;;;;;;11.30;96.90;;;;;;5034757;28;20445;-85
2023/04/23 01:58:10;;;;;;;9.77;4.47;;;11.30;96.00;;;;;;5052633;28;19917;-86
2023/04/23 02:00:35;;;;;;;;;;;11.30;95.50;;;;;;5038095;28;20032;-86
2023/04/23 02:03:01;;;;;;;7.55;4.25;;;11.30;95.20;;;;;;5053503;28;19971;-86
2023/04/23 02:05:27;;;;;;;;;;;11.20;94.70;;;;;;5031574;28;20591;-84
2023/04/23 02:07:53;;;;;;;9.15;4.00;;;11.20;96.40;;;;;;5049173;28;20006;-84
2023/04/23 02:10:19;;;;;;;;;;;11.20;97.00;;;;;;5031892;28;20048;-84
2023/04/23 02:12:46;;;;;;;11.65;4.47;;;11.10;96.90;;;;;;5051010;28;19912;-87
2023/04/23 02:15:13;;;;;;;12.02;5.38;;;11.10;97.00;;;;;;5035807;28;20482;-87
2023/04/23 02:17:39;;;;;;;13.05;5.28;;;11.00;97.10;;;;;;5034049;28;20104;-85
2023/04/23 02:20:05;;;;;;;;;;;11.00;97.10;;;;;;5034008;28;20148;-85
2023/04/23 02:22:31;;;;;;;11.07;5.23;;;11.00;97.50;;;;;;5050240;28;19905;-85
2023/04/23 02:24:57;;;;;;;;;;;11.00;97.60;;;;;;5033596;28;20255;-85
2023/04/23 02:27:23;;;;;;;12.80;4.45;;;11.00;96.80;;;;;;5050071;28;19992;-85
2023/04/23 02:29:49;;;;;;;;;;;10.90;97.00;;;;;;5034255;28;20646;-85
2023/04/23 02:32:15;;;;;;;10.55;4.05;;;10.90;97.30;;;;;;5050280;28;20235;-85
2023/04/23 02:34:41;;;;;;;7.10;3.67;;;10.90;97.40;;;;;;5033635;28;20040;-85
2023/04/23 02:37:06;;;;;;;;;;;10.80;97.50;;;;;;5033646;28;20045;-85
2023/04/23 02:39:32;;;;;;;12.93;4.90;;;10.80;97.40;;;;;;5050104;28;19916;-84
2023/04/23 02:41:58;;;;;;;12.00;4.60;;;10.80;97.30;;;;;;5031863;28;20405;-83
2023/04/23 02:44:24;;;;;;;6.95;4.07;;;10.70;98.20;;;;;;5032709;28;20063;-84
2023/04/23 02:46:50;;;;;;;;;;;10.70;98.90;;;;;;5032096;28;20057;-86
2023/04/23 02:49:16;;;;;;;6.65;3.25;;;10.70;98.90;;;;;;5049940;28;19912;-86
2023/04/23 02:51:42;;;;;;;;;;;10.60;98.70;;;;;;5033265;28;20645;-86
2023/04/23 02:54:08;;;;;;;6.72;3.17;;;10.60;98.40;;;;;;5033157;28;19991;-85
2023/04/23 02:56:33;;;;;;;7.70;3.35;;;10.60;97.50;;;;;;5032483;28;20049;-85
2023/04/23 02:59:00;;;;;;;;;;;10.50;97.60;;;;;;5033137;28;20406;-85
2023/04/23 03:01:26;;;;;;;4.63;2.63;;;10.50;96.90;;;;;;5049314;28;19944;-86
2023/04/23 03:03:52;;;;;;;;;;;10.40;97.50;;;;;;5032905;28;20498;-86
2023/04/23 03:06:17;;;;;;;8.38;2.97;;;10.30;97.80;;;;;;5049290;28;19909;-85
2023/04/23 03:08:43;;;;;;;;;;;10.30;97.40;;;;;;5033061;28;20083;-85
2023/04/23 03:11:09;;;;;;;6.53;3.03;;;10.30;96.30;;;;;;5048366;28;19905;-85
2023/04/23 03:13:34;;;;;;;;;;;10.30;95.40;;;;;;5032725;28;20075;-85
2023/04/23 03:16:00;;;;;;;7.20;2.85;;;10.20;95.50;;;;;;5048824;28;19999;-85
2023/04/23 03:18:26;;;;;;;;;;;10.20;96.00;;;;;;5033173;28;20034;-85
2023/04/23 03:20:51;;;;;;;8.55;2.90;;;10.10;95.70;;;;;;5048488;28;19905;-86
2023/04/23 03:23:17;;;;;;;;;;;10.00;96.00;;;;;;5032809;28;20029;-84
2023/04/23 03:25:42;;;;;;;10.02;2.83;;;10.00;96.50;;;;;;5048256;28;20300;-84
2023/04/23 03:28:08;;;;;;;7.10;2.60;;;9.90;97.10;;;;;;5032175;28;20029;-84
2023/04/23 03:30:34;;;;;;;;;;;9.90;97.60;;;;;;5033663;28;20084;-86
2023/04/23 03:33:01;;;;;;;3.83;2.60;;;9.80;97.00;;;;;;5049515;28;19912;-87
2023/04/23 03:35:27;;;;;;;15.45;3.05;;;9.80;96.00;;;;;;5032886;28;20112;-87
2023/04/23 03:37:52;;;;;;;;;;;9.80;95.40;;;;;;5032821;28;20605;-86
2023/04/23 03:40:19;;;;;;;6.53;3.05;;;9.80;94.70;;;;;;5048980;28;19996;-86
2023/04/23 03:42:44;;;;;;;6.38;3.00;;;9.80;94.20;;;;;;5032280;28;20494;-86
2023/04/23 03:45:10;;;;;;;;;;;9.80;95.70;;;;;;5033741;28;20025;-87
2023/04/23 03:47:36;;;;;;;5.10;2.38;;;9.80;94.10;;;;;;5050391;28;19973;-86
2023/04/23 03:50:01;;;;;;;;;;;9.80;95.00;;;;;;5032295;28;20025;-86
2023/04/23 03:52:27;;;;;;;7.63;3.70;;;9.80;95.70;;;;;;5049021;28;19909;-86
2023/04/23 03:54:53;;;;;;;;;;;9.70;96.30;;;;;;5032328;28;20620;-86
2023/04/23 03:57:20;;;;;;;5.43;3.10;;;9.70;97.10;;;;;;5033218;28;19921;-85
2023/04/23 03:59:47;;;;;;;9.63;3.85;;;9.60;97.40;;;;;;5032090;28;20104;-86
2023/04/23 04:02:12;;;;;;;;;;;9.60;98.10;;;;;;5031989;28;20025;-86
2023/04/23 04:04:38;;;;;;;13.32;5.72;;;9.50;99.50;;;;;;5032841;28;19909;-86
2023/04/23 04:07:06;;;;;;;;;;;9.40;99.70;;;;;;5032423;28;20025;-86
2023/04/23 04:09:32;;;;;;;22.48;10.82;;;9.50;99.40;;;;;;5049121;28;20007;-86
2023/04/23 04:11:57;;;;;;;;;;;9.50;99.30;;;;;;5048668;28;20068;-84
2023/04/23 04:14:23;;;;;;;11.48;5.00;;;9.60;98.50;;;;;;5047271;28;20518;-83
2023/04/23 04:16:49;;;;;;;;;;;9.50;97.70;;;;;;5029872;28;20511;-82
2023/04/23 04:19:15;;;;;;;5.53;2.90;;;9.60;97.70;;;;;;5046848;28;19913;-84
2023/04/23 04:21:40;;;;;;;;;;;9.70;96.90;;;;;;5031920;28;20097;-84
2023/04/23 04:24:06;;;;;;;7.75;3.40;;;9.70;97.60;;;;;;5047299;28;19996;-85
2023/04/23 04:26:33;;;;;;;;;;;9.80;98.30;;;;;;5029905;28;20557;-84
2023/04/23 04:29:00;;;;;;;7.18;4.63;;;9.80;99.00;;;;;;5046482;28;19909;-84
2023/04/23 04:31:27;;;;;;;8.27;3.50;;;9.90;99.20;;;;;;5035768;28;20065;-84
2023/04/23 04:33:56;;;;;;;11.15;3.35;;;9.90;99.20;;;;;;5034679;28;20032;-85
2023/04/23 04:36:24;;;;;;;5.82;3.13;;;10.10;98.50;;;;;;5033311;28;20494;-86
2023/04/23 04:38:50;;;;;;;11.65;2.67;;;10.30;97.30;;;;;;5031458;28;20494;-85
2023/04/23 04:41:18;;;;;;;7.43;3.10;;;10.60;94.90;;;;;;5031437;28;20028;-84
2023/04/23 04:43:45;;;;;;;7.40;3.00;;;10.90;94.40;;;;;;5031569;28;20484;-85
2023/04/23 04:46:11;;;;;;;4.95;3.10;;;11.30;94.40;;;;;;5032460;28;20447;-85
2023/04/23 04:48:36;;;;;;;;;;;11.60;94.20;;;;;;5031737;28;20057;-85
2023/04/23 04:51:02;;;;;;;6.63;3.25;;;11.90;91.90;;;;;;5047656;28;19905;-85
2023/04/23 04:53:28;;;;;;;;;;;12.20;91.30;;;;;;5031109;28;20053;-83
2023/04/23 04:55:54;;;;;;;9.32;2.97;;;12.50;90.70;;;;;;5045086;28;20003;-82
2023/04/23 04:58:19;;;;;;;;;;;13.00;90.40;;;;;;5062362;28;20092;-83
2023/04/23 05:00:45;;;;;;;6.60;4.10;;;13.50;85.40;;;;;;5046091;28;20632;-82
2023/04/23 05:03:11;;;;;;;;;;;14.00;83.10;;;;;;5029493;28;20021;-81
2023/04/23 05:05:37;;;;;;;7.75;3.45;;;14.30;77.80;;;;;;5044996;28;19916;-83
2023/04/23 05:08:02;;;;;;;;;;;14.50;79.30;;;;;;5030729;28;20498;-85
2023/04/23 05:10:28;;;;;;;8.50;3.95;;;14.80;75.80;;;;;;5046222;28;19916;-84
2023/04/23 05:12:56;;;;;;;7.75;4.28;;;15.10;76.20;;;;;;5029797;28;20028;-84
2023/04/23 05:15:22;;;;;;;13.25;5.30;;;15.40;72.70;;;;;;5028234;28;20453;-83
2023/04/23 05:17:50;;;;;;;;;;;15.70;70.50;;;;;;5031551;28;20076;-85
2023/04/23 05:20:16;;;;;;;11.38;4.38;;;16.00;68.40;;;;;;5046778;28;19909;-84
2023/04/23 05:22:42;;;;;;;7.25;3.85;;;16.50;66.70;;;;;;5028629;28;20445;-83
2023/04/23 05:25:08;;;;;;;11.55;4.88;;;17.00;65.30;;;;;;5029792;28;20487;-84
2023/04/23 05:27:34;;;;;;;10.73;5.22;;;17.30;65.90;;;;;;5030391;28;20390;-83
2023/04/23 05:30:01;;;;;;;14.90;4.78;;;17.70;64.90;;;;;;5046678;28;20036;-83
2023/04/23 05:32:27;;;;;;;13.55;4.18;;;18.20;63.20;;;;;;5030132;28;20029;-84
2023/04/23 05:34:53;;;;;;;11.00;3.55;;;18.60;61.40;;;;;;5030075;28;20026;-84
2023/04/23 05:37:18;;;;;;;11.93;4.40;;;19.00;60.20;;;;;;5030286;28;20029;-85
2023/04/23 05:39:44;;;;;;;7.95;3.65;;;19.30;58.10;;;;;;5030429;28;20049;-84
2023/04/23 05:42:10;;;;;;;11.80;3.88;;;19.60;55.60;;;;;;5031511;28;20022;-84
2023/04/23 05:44:36;;;;;;;8.32;3.53;;;19.80;56.20;;;;;;5030239;28;20033;-84
2023/04/23 05:47:01;;;;;;;8.55;3.38;;;20.10;59.40;;;;;;5066825;28;20501;-84
2023/04/23 05:49:27;;;;;;;15.05;3.60;;;20.30;57.20;;;;;;5033528;28;20029;-84
2023/04/23 05:51:53;;;;;;;10.48;3.28;;;20.80;55.10;;;;;;5034740;28;20022;-85
2023/04/23 05:54:18;;;;;;;5.45;3.60;;;21.20;53.00;;;;;;5033716;28;20036;-84
2023/04/23 05:56:44;;;;;;;5.88;3.72;;;21.60;51.00;;;;;;5066215;28;20521;-84
2023/04/23 05:59:10;;;;;;;9.23;3.47;;;22.00;49.50;;;;;;5033376;28;20044;-84
2023/04/23 06:01:36;;;;;;;5.00;3.10;;;22.40;48.20;;;;;;5032090;28;20025;-85
2023/04/23 06:04:02;;;;;;;5.82;3.90;;;22.70;46.60;;;;;;5033402;28;20022;-84
2023/04/23 06:06:28;;;;;;;10.52;4.80;;;23.10;45.40;;;;;;5030944;28;20034;-86
2023/04/23 06:08:53;;;;;;;8.38;3.72;;;23.50;42.40;;;;;;5032663;28;20034;-84
2023/04/23 06:11:20;;;;;;;9.05;3.42;;;24.00;40.90;;;;;;5031146;28;20457;-85
2023/04/23 06:13:46;;;;;;;4.32;2.85;;;24.50;37.10;;;;;;5033741;28;20024;-84
2023/04/23 06:16:11;;;;;;;10.75;3.88;;;24.90;35.50;;;;;;5032805;28;20044;-84
2023/04/23 06:18:38;;;;;;;7.78;3.03;;;25.50;34.10;;;;;;5031038;28;20277;-84
2023/04/23 06:21:04;;;;;;;6.15;2.67;;;26.10;32.00;;;;;;5031988;28;20021;-84
2023/04/23 06:23:31;;;;;;;6.28;2.35;;;26.40;31.10;;;;;;5031984;28;20117;-85
2023/04/23 06:25:57;;;;;;;5.18;1.92;;;26.70;29.40;;;;;;5030544;28;20433;-84
2023/04/23 06:28:23;;;;;;;4.68;2.40;;;27.10;27.30;;;;;;5032103;28;20090;-85
2023/04/23 06:30:49;;;;;;;6.90;2.30;;;27.10;26.30;;;;;;5032288;28;20032;-84
2023/04/23 06:33:14;;;;;;;6.15;2.47;;;26.90;26.40;;;;;;5030476;28;20067;-85
2023/04/23 06:35:40;;;;;;;5.75;2.05;;;27.40;27.60;;;;;;5031577;28;20021;-85
2023/04/23 06:38:06;;;;;;;5.65;2.20;;;27.50;26.10;;;;;;5031059;28;20042;-85
2023/04/23 06:40:32;;;;;;;8.13;3.35;;;27.50;25.40;;;;;;5032005;28;20037;-86
2023/04/23 06:42:58;;;;;;;9.05;2.20;;;27.60;26.20;;;;;;5032203;28;20034;-85
2023/04/23 06:45:24;;;;;;;5.07;2.30;;;27.90;26.80;;;;;;5033248;28;20573;-86
2023/04/23 06:47:49;;;;;;;7.78;2.22;;;27.80;25.60;;;;;;5031924;28;20397;-85
2023/04/23 06:50:15;;;;;;;7.40;2.47;;;27.90;25.40;;;;;;5030004;28;20029;-85
2023/04/23 06:52:42;;;;;;;7.05;2.30;;;27.90;26.30;;;;;;5031197;28;20021;-84
2023/04/23 06:55:08;;;;;;;6.00;3.00;;;28.00;26.10;;;;;;5030513;28;20120;-85
2023/04/23 06:57:34;;;;;;;6.88;2.53;;;28.20;26.10;;;;;;5029445;28;20054;-83
2023/04/23 07:00:00;;;;;;;4.20;2.80;;;28.30;26.00;;;;;;5030451;28;20041;-83
2023/04/23 07:02:26;;;;;;;3.83;2.63;;;28.50;26.00;;;;;;5030222;28;20025;-84
2023/04/23 07:04:51;;;;;;;5.15;2.60;;;28.30;25.20;;;;;;5047913;28;20394;-84
2023/04/23 07:07:17;;;;;;;12.43;3.78;;;28.30;26.10;;;;;;5031644;28;20343;-84
2023/04/23 07:09:43;;;;;;;5.45;3.30;;;28.40;26.00;;;;;;5029768;28;20128;-84
2023/04/23 07:12:09;;;;;;;9.60;2.80;;;28.60;26.00;;;;;;5030011;28;20061;-84
2023/04/23 07:14:35;;;;;;;6.00;2.72;;;28.70;25.60;;;;;;5029381;28;20036;-83
2023/04/23 07:17:00;;;;;;;6.25;2.75;;;28.60;25.30;;;;;;5029454;28;20083;-83
2023/04/23 07:19:26;;;;;;;5.05;2.33;;;28.70;26.00;;;;;;5029684;28;20128;-84
2023/04/23 07:21:52;;;;;;;7.90;2.78;;;28.70;25.90;;;;;;5031440;28;20030;-85
2023/04/23 07:24:18;;;;;;;9.35;2.85;;;29.10;26.00;;;;;;5028915;28;20453;-83
2023/04/23 07:26:44;;;;;;;7.88;2.90;;;28.90;24.90;;;;;;5030343;28;20033;-82
2023/04/23 07:29:12;;;;;;;7.40;2.80;;;28.80;25.10;;;;;;5030894;28;20040;-84
2023/04/23 07:31:40;;;;;;;5.20;2.92;;;28.90;25.50;;;;;;5029585;28;20080;-85
2023/04/23 07:34:06;;;;;;;9.50;2.60;;;29.10;25.10;;;;;;5029485;28;20071;-85
2023/04/23 07:36:32;;;;;;;7.05;2.90;;;29.20;25.40;;;;;;5029667;28;20057;-84
2023/04/23 07:38:58;;;;;;;4.90;2.53;;;29.50;25.20;;;;;;5030292;28;20055;-85
2023/04/23 07:41:24;;;;;;;4.63;2.35;;;29.90;24.90;;;;;;5030079;28;20080;-85
2023/04/23 07:43:50;;;;;;;4.03;2.35;;;30.10;24.80;;;;;;5029283;28;20406;-84
2023/04/23 07:46:15;;;;;;;12.63;2.67;;;30.40;24.50;;;;;;5062814;28;20037;-85
2023/04/23 07:48:41;;;;;;;3.78;2.05;;;30.70;24.30;;;;;;5029105;28;20048;-84
2023/04/23 07:51:07;;;;;;;5.60;2.60;;;30.90;24.30;;;;;;5030078;28;20033;-85
2023/04/23 07:53:34;;;;;;;5.38;2.35;;;30.80;23.60;;;;;;5029655;28;20028;-85
2023/04/23 07:56:00;;;;;;;5.20;2.38;;;30.50;23.20;;;;;;5029804;28;20120;-86
2023/04/23 07:58:25;;;;;;;9.45;2.50;;;30.30;23.60;;;;;;5029317;28;20130;-84
2023/04/23 08:00:51;;;;;;;5.10;2.35;;;30.40;23.90;;;;;;5046097;28;20030;-84
2023/04/23 08:03:17;;;;;;;4.53;2.42;;;30.70;23.60;;;;;;5029964;28;20033;-84
2023/04/23 08:05:42;;;;;;;13.73;3.00;;;30.80;24.00;;;;;;5030271;28;20045;-84
2023/04/23 08:08:11;;;;;;;4.32;2.50;;;31.20;23.60;;;;;;5029974;28;20497;-85
2023/04/23 08:10:37;;;;;;;6.97;2.35;;;31.30;23.60;;;;;;5029730;28;20351;-84
2023/04/23 08:13:02;;;;;;;8.48;2.47;;;31.60;23.30;;;;;;5030787;28;20022;-83
2023/04/23 08:15:28;;;;;;;5.53;2.55;;;31.70;23.00;;;;;;5029471;28;20033;-84
2023/04/23 08:17:54;;;;;;;9.20;2.63;;;31.70;22.60;;;;;;5030268;28;20032;-84
2023/04/23 08:20:20;;;;;;;4.85;2.15;;;31.50;23.20;;;;;;5030420;28;20068;-85
2023/04/23 08:22:45;;;;;;;3.92;2.10;;;31.50;23.20;;;;;;5029437;28;20056;-85
2023/04/23 08:25:14;;;;;;;3.55;2.30;;;31.80;22.40;;;;;;5030273;28;20088;-83
2023/04/23 08:27:39;;;;;;;8.23;2.28;;;31.50;22.90;;;;;;5031034;28;20029;-85
2023/04/23 08:30:07;;;;;;;4.22;2.58;;;31.50;23.60;;;;;;5030064;28;20121;-85
2023/04/23 08:32:33;;;;;;;5.72;2.13;;;31.50;22.90;;;;;;5029256;28;20036;-83
2023/04/23 08:34:58;;;;;;;6.32;2.88;;;31.60;22.90;;;;;;5028868;28;20029;-84
2023/04/23 08:37:24;;;;;;;6.00;2.60;;;31.60;23.30;;;;;;5029695;28;20399;-84
2023/04/23 08:39:50;;;;;;;5.07;2.60;;;31.40;22.90;;;;;;5028550;28;20030;-84
2023/04/23 08:42:32;;;;;;;5.28;2.67;;;31.40;23.30;;;;;;5029664;28;20034;-84
2023/04/23 08:44:59;;;;;;;3.47;2.00;;;31.60;22.80;;;;;;5029020;28;20134;-85
2023/04/23 08:47:28;;;;;;;4.60;2.78;;;31.50;23.20;;;;;;5028985;28;20045;-85
2023/04/23 08:49:54;;;;;;;6.90;2.38;;;31.40;23.20;;;;;;5030353;28;20079;-85
2023/04/23 08:52:25;;;;;;;5.38;2.78;;;31.20;22.90;;;;;;5031412;28;20392;-85
2023/04/23 08:54:59;;;;;;;6.95;2.88;;;31.30;23.20;;;;;;5028668;28;20025;-83
2023/04/23 08:57:26;;;;;;;4.68;2.28;;;31.40;23.00;;;;;;5029651;28;20112;-85
2023/04/23 08:59:52;;;;;;;6.78;2.67;;;31.20;23.50;;;;;;5030344;28;20406;-83
2023/04/23 09:02:19;;;;;;;3.22;1.98;;;30.90;23.00;;;;;;5028619;28;20026;-85
2023/04/23 09:04:45;;;;;;;8.13;2.92;;;30.90;23.00;;;;;;5029524;28;20565;-85
2023/04/23 09:07:12;;;;;;;5.30;2.50;;;30.40;22.90;;;;;;5028561;28;20474;-85
2023/04/23 09:09:38;;;;;;;7.05;2.55;;;30.50;23.50;;;;;;5029652;28;20034;-84
2023/04/23 09:12:06;;;;;;;9.75;2.88;;;30.50;22.90;;;;;;5027430;28;20022;-84
2023/04/23 09:14:32;;;;;;;9.57;2.80;;;30.10;22.50;;;;;;5028373;28;20037;-84
2023/04/23 09:16:58;;;;;;;8.25;2.40;;;29.80;23.60;;;;;;5027676;28;20481;-82
2023/04/23 09:19:29;;;;;;;5.10;2.65;;;29.60;23.90;;;;;;5030184;28;20128;-84
2023/04/23 09:21:56;;;;;;;9.35;2.38;;;29.80;23.50;;;;;;5032555;28;20112;-84
2023/04/23 09:24:23;;;;;;;4.90;2.78;;;29.90;24.60;;;;;;5032508;28;20037;-84
2023/04/23 09:26:50;;;;;;;4.25;2.40;;;30.40;25.10;;;;;;5032254;28;20128;-84
2023/04/23 09:29:18;;;;;;;7.50;2.85;;;30.50;23.80;;;;;;5032759;28;20038;-84
2023/04/23 09:31:54;;;;;;;5.05;2.95;;;30.20;23.50;;;;;;5032783;28;20172;-84
2023/04/23 09:34:24;;;;;;;6.53;2.92;;;29.90;24.10;;;;;;5031819;28;20029;-83
2023/04/23 09:36:52;;;;;;;9.38;2.63;;;30.10;24.90;;;;;;5032055;28;20033;-84
2023/04/23 09:39:22;;;;;;;7.45;2.30;;;30.80;23.90;;;;;;5031502;28;20048;-82
2023/04/23 09:41:50;;;;;;;8.38;2.40;;;30.80;24.30;;;;;;5031789;28;20391;-84
2023/04/23 09:44:18;;;;;;;7.90;2.42;;;30.80;23.60;;;;;;5032499;28;20029;-84
2023/04/23 09:46:44;;;;;;;4.60;2.42;;;30.10;24.10;;;;;;5033094;28;20022;-84
2023/04/23 09:49:11;;;;;;;5.85;2.78;;;29.60;24.80;;;;;;5032238;28;20079;-83
2023/04/23 09:51:47;;;;;;;10.25;2.45;;;29.80;25.40;;;;;;5032223;28;20152;-83
2023/04/23 09:54:20;;;;;;;7.18;2.55;;;30.00;24.10;;;;;;5031774;28;20040;-83
2023/04/23 09:56:59;;;;;;;6.07;3.00;;;29.60;23.70;;;;;;5031438;28;20049;-83
2023/04/23 09:59:26;;;;;;;6.68;2.58;;;28.90;24.60;;;;;;5033754;28;20038;-83
2023/04/23 10:01:52;;;;;;;8.98;2.85;;;28.40;25.20;;;;;;5032147;28;20524;-82
2023/04/23 10:04:24;;;;;;;4.43;2.90;;;28.00;26.20;;;;;;5031394;28;20033;-82
2023/04/23 10:06:55;;;;;;;4.95;2.70;;;27.80;25.90;;;;;;5031308;28;20028;-82
2023/04/23 10:09:23;;;;;;;6.45;2.70;;;27.40;25.80;;;;;;5031483;28;20030;-83
2023/04/23 10:11:54;;;;;;;4.72;2.83;;;27.10;26.20;;;;;;5031388;28;20041;-82
2023/04/23 10:14:24;;;;;;;4.72;2.50;;;27.30;26.70;;;;;;5031310;28;20029;-83
2023/04/23 10:16:52;;;;;;;6.22;2.67;;;27.50;27.50;;;;;;5031131;28;20030;-83
2023/04/23 10:19:22;;;;;;;8.77;3.58;;;27.40;27.30;;;;;;5031333;28;20059;-83
2023/04/23 10:22:10;;;;;;;6.38;2.97;;;27.40;27.80;;;;;;5032757;28;20032;-83
2023/04/23 10:24:40;;;;;;;7.90;2.83;;;26.80;26.30;;;;;;5065865;28;20506;-82
2023/04/23 10:27:13;;;;;;;6.13;2.67;;;26.10;26.40;;;;;;5032030;28;20144;-83
2023/04/23 10:29:40;;;;;;;6.53;2.70;;;25.90;27.30;;;;;;5032097;28;20442;-83
2023/04/23 10:32:06;;;;;;;7.47;2.90;;;25.50;27.00;;;;;;5030790;28;20026;-82
2023/04/23 10:34:32;;;;;;;9.85;2.90;;;25.20;28.10;;;;;;5048322;28;20047;-82
2023/04/23 10:36:59;;;;;;;17.63;2.55;;;25.00;28.90;;;;;;5031455;28;20025;-82
2023/04/23 10:39:33;;;;;;;7.63;2.42;;;25.00;28.40;;;;;;5031550;28;20034;-82
2023/04/23 10:42:00;;;;;;;5.10;2.72;;;24.90;28.40;;;;;;5031151;28;20025;-83
2023/04/23 10:44:37;;;;;;;7.32;2.75;;;24.90;27.90;;;;;;5031137;28;20037;-82
2023/04/23 10:47:04;;;;;;;7.20;2.83;;;24.70;29.00;;;;;;5030675;28;20032;-81
2023/04/23 10:49:32;;;;;;;6.80;2.75;;;24.40;28.90;;;;;;5030467;28;20021;-81
2023/04/23 10:52:15;;;;;;;6.15;2.60;;;24.00;29.20;;;;;;5031219;28;20537;-81
2023/04/23 10:55:02;;;;;;;5.35;2.78;;;24.10;30.20;;;;;;5031001;28;20529;-81
2023/04/23 10:57:27;;;;;;;7.25;2.42;;;24.00;29.10;;;;;;5031872;28;20045;-82
2023/04/23 10:59:55;;;;;;;9.90;2.55;;;23.70;28.80;;;;;;5031935;28;20037;-82
2023/04/23 11:02:24;;;;;;;5.28;2.08;;;23.80;30.20;;;;;;5030492;28;20025;-82
2023/04/23 11:04:57;;;;;;;4.45;1.98;;;24.10;29.70;;;;;;5030321;28;20033;-83
2023/04/23 11:07:31;;;;;;;5.55;3.03;;;24.40;29.80;;;;;;5030297;28;20475;-81
2023/04/23 11:10:10;;;;;;;7.35;2.80;;;24.70;29.30;;;;;;5030014;28;20025;-82
2023/04/23 11:12:38;;;;;;;7.72;1.98;;;24.70;27.80;;;;;;5031761;28;20026;-83
2023/04/23 11:15:17;;;;;;;8.18;2.90;;;24.10;26.30;;;;;;5031228;28;20394;-83
2023/04/23 11:17:43;;;;;;;11.43;2.33;;;24.10;27.10;;;;;;5029759;28;20108;-82
2023/04/23 11:20:13;;;;;;;3.42;1.92;;;24.20;27.40;;;;;;5062114;28;20136;-82
2023/04/23 11:22:47;;;;;;;4.05;1.80;;;24.60;27.40;;;;;;5029647;28;20092;-81
2023/04/23 11:25:15;;;;;;;8.68;2.38;;;24.90;26.70;;;;;;5029292;28;20037;-82
2023/04/23 11:27:46;;;;;;;7.00;2.17;;;25.10;24.40;;;;;;5029594;28;20032;-83
2023/04/23 11:30:17;;;;;;;7.95;1.77;;;24.80;25.30;;;;;;5031614;28;20033;-83
2023/04/23 11:32:48;;;;;;;5.63;1.80;;;24.50;24.90;;;;;;5029073;28;20033;-83
2023/04/23 11:35:19;;;;;;;5.43;2.20;;;24.50;26.60;;;;;;5062475;28;20109;-82
2023/04/23 11:37:49;;;;;;;4.90;2.60;;;25.00;27.30;;;;;;5030268;28;20025;-83
2023/04/23 11:40:20;;;;;;;4.75;2.28;;;25.20;26.00;;;;;;5046317;28;20037;-82
2023/04/23 11:42:48;;;;;;;8.43;2.05;;;25.20;26.00;;;;;;5029354;28;20068;-83
2023/04/23 11:45:21;;;;;;;5.63;1.80;;;25.10;24.50;;;;;;5030146;28;20033;-83
2023/04/23 11:47:55;;;;;;;4.70;1.40;;;25.00;23.30;;;;;;5028968;28;20113;-83
2023/04/23 11:50:28;;;;;;;4.63;1.40;;;24.90;22.10;;;;;;5029700;28;20147;-83
2023/04/23 11:52:54;;;;;;;5.43;1.60;;;24.60;23.00;;;;;;5029760;28;20033;-83
2023/04/23 11:55:21;;;;;;;4.05;1.92;;;24.30;22.80;;;;;;5031228;28;20064;-84
2023/04/23 11:57:50;;;;;;;5.93;1.70;;;24.20;23.80;;;;;;5027924;28;20053;-83
2023/04/23 12:00:19;;;;;;;3.60;1.77;;;24.30;25.50;;;;;;5029267;28;20037;-83
2023/04/23 12:02:58;;;;;;;6.75;2.20;;;24.50;26.40;;;;;;5062289;28;20124;-83
2023/04/23 12:05:38;;;;;;;5.50;2.38;;;24.50;25.80;;;;;;5030165;28;20105;-84
2023/04/23 12:08:10;;;;;;;14.32;3.38;;;24.30;26.50;;;;;;5029280;28;20037;-83
2023/04/23 12:10:53;;;;;;;5.65;2.45;;;23.80;26.70;;;;;;5029461;28;20052;-83
2023/04/23 12:13:30;;;;;;;7.53;2.35;;;23.70;27.70;;;;;;5030434;28;20095;-83
2023/04/23 12:16:01;;;;;;;3.70;2.00;;;23.80;27.90;;;;;;5028463;28;20033;-83
2023/04/23 12:18:28;;;;;;;4.45;1.63;;;24.00;27.60;;;;;;5028208;28;20045;-83
2023/04/23 12:20:54;;;;;;;11.15;1.88;;;24.10;28.30;;;;;;5030205;28;20020;-84
2023/04/23 12:23:27;;;;;;;6.47;2.13;;;24.10;26.90;;;;;;5030226;28;20083;-83
2023/04/23 12:25:55;;;;;;;7.30;2.10;;;24.10;27.80;;;;;;5028452;28;20036;-84
2023/04/23 12:28:25;;;;;;;10.32;2.30;;;24.00;27.70;;;;;;5045189;28;20091;-83
2023/04/23 12:30:51;;;;;;;4.63;1.70;;;23.90;27.60;;;;;;5028072;28;20025;-83
2023/04/23 12:33:17;;;;;;;6.63;2.08;;;23.90;27.60;;;;;;5028044;28;20033;-82
2023/04/23 12:35:48;;;;;;;5.38;2.17;;;23.80;26.30;;;;;;5028288;28;20055;-81
2023/04/23 12:38:25;;;;;;;6.28;1.85;;;23.70;26.60;;;;;;5028745;28;20071;-82
2023/04/23 12:40:58;;;;;;;5.75;1.50;;;23.70;27.40;;;;;;5028761;28;20120;-82
2023/04/23 12:43:25;;;;;;;3.47;1.80;;;23.60;27.30;;;;;;5028840;28;20033;-82
2023/04/23 12:45:51;;;;;;;5.68;2.00;;;23.60;27.50;;;;;;5028570;28;20510;-82
2023/04/23 12:48:17;;;;;;;6.82;1.70;;;23.60;27.50;;;;;;5028023;28;20334;-82
2023/04/23 12:50:47;;;;;;;5.30;2.28;;;23.60;27.40;;;;;;5028627;28;20327;-83
2023/04/23 12:53:14;;;;;;;5.85;1.70;;;23.70;27.10;;;;;;5028781;28;20108;-84
2023/04/23 12:55:42;;;;;;;2.83;1.80;;;23.70;26.90;;;;;;5033412;28;20033;-82